createdAt,value
2019-04-16T00:01:46.124Z,97.50
2019-04-16T00:04:32.526Z,97.70
2019-04-16T00:07:25.699Z,97.10
2019-04-16T00:10:01.292Z,97.60
2019-04-16T00:12:54.991Z,97.60
2019-04-16T00:15:24.391Z,97.80
2019-04-16T00:17:53.279Z,98.10
2019-04-16T00:20:22.486Z,98.00
2019-04-16T00:23:06.634Z,97.80
2019-04-16T00:25:35.191Z,97.90
2019-04-16T00:28:03.659Z,98.30
2019-04-16T00:30:35.468Z,98.50
2019-04-16T00:33:03.326Z,99.20
2019-04-16T00:35:31.654Z,98.70
2019-04-16T00:38:00.396Z,99.00
2019-04-16T00:40:28.872Z,99.00
2019-04-16T00:42:57.396Z,99.10
2019-04-16T00:45:25.853Z,99.30
2019-04-16T00:47:54.282Z,98.90
2019-04-16T00:50:22.587Z,99.10
2019-04-16T00:52:51.004Z,99.20
2019-04-16T00:55:19.436Z,99.00
2019-04-16T00:57:48.591Z,99.10
2019-04-16T01:00:17.776Z,99.50
2019-04-16T01:02:47.064Z,99.50
2019-04-16T01:05:15.663Z,99.60
2019-04-16T01:07:44.009Z,99.50
2019-04-16T01:10:12.431Z,99.70
2019-04-16T01:12:40.850Z,99.90
2019-04-16T01:15:09.367Z,99.80
2019-04-16T01:17:37.832Z,99.60
2019-04-16T01:20:06.472Z,99.40
2019-04-16T01:22:34.822Z,99.70
2019-04-16T01:25:03.573Z,99.90
2019-04-16T01:27:42.309Z,99.90
2019-04-16T01:30:13.133Z,99.90
2019-04-16T01:33:00.965Z,99.90
2019-04-16T01:35:51.724Z,99.90
2019-04-16T01:38:45.288Z,99.70
2019-04-16T01:41:15.526Z,99.40
2019-04-16T01:43:43.828Z,99.70
2019-04-16T01:46:12.211Z,99.90
2019-04-16T01:48:40.548Z,99.90
2019-04-16T01:51:08.871Z,99.90
2019-04-16T01:53:37.205Z,99.90
2019-04-16T01:56:05.538Z,99.90
2019-04-16T01:58:34.558Z,99.90
2019-04-16T02:01:03.459Z,99.90
2019-04-16T02:03:31.815Z,99.90
2019-04-16T02:06:00.196Z,99.90
2019-04-16T02:08:31.079Z,99.90
2019-04-16T02:10:59.577Z,99.90
2019-04-16T02:13:28.251Z,99.90
2019-04-16T02:15:56.934Z,99.90
2019-04-16T02:18:29.465Z,99.90
2019-04-16T02:20:55.779Z,99.90
2019-04-16T02:23:24.274Z,99.90
2019-04-16T02:25:52.886Z,99.90
2019-04-16T02:28:21.906Z,99.90
2019-04-16T02:30:50.607Z,99.90
2019-04-16T02:33:19.083Z,99.90
2019-04-16T02:35:47.537Z,99.90
2019-04-16T02:38:16.068Z,99.90
2019-04-16T02:40:51.398Z,99.90
2019-04-16T02:43:15.358Z,99.90
2019-04-16T02:45:43.821Z,99.90
2019-04-16T02:48:16.975Z,99.90
2019-04-16T02:50:52.899Z,99.90
2019-04-16T02:53:39.570Z,99.90
2019-04-16T02:56:26.710Z,99.90
2019-04-16T02:59:00.067Z,99.90
2019-04-16T03:01:49.460Z,99.90
2019-04-16T03:04:21.114Z,99.90
2019-04-16T03:06:49.708Z,99.90
2019-04-16T03:09:18.221Z,99.90
2019-04-16T03:11:48.953Z,99.90
2019-04-16T03:14:17.085Z,99.90
2019-04-16T03:17:01.817Z,99.90
2019-04-16T03:19:33.424Z,99.90
2019-04-16T03:22:02.896Z,99.90
2019-04-16T03:24:31.801Z,99.90
2019-04-16T03:27:00.409Z,99.90
2019-04-16T03:29:30.465Z,99.90
2019-04-16T03:31:59.638Z,99.90
2019-04-16T03:34:29.354Z,99.90
2019-04-16T03:36:58.562Z,99.90
2019-04-16T03:39:28.364Z,99.90
2019-04-16T03:41:56.934Z,99.90
2019-04-16T03:44:25.482Z,99.90
2019-04-16T03:46:54.090Z,99.90
2019-04-16T03:49:24.574Z,99.90
2019-04-16T03:51:52.800Z,99.90
2019-04-16T03:54:22.323Z,99.90
2019-04-16T03:56:51.638Z,99.90
2019-04-16T03:59:20.146Z,99.90
2019-04-16T04:01:48.712Z,99.90
2019-04-16T04:04:17.203Z,99.90
2019-04-16T04:06:45.674Z,99.90
2019-04-16T04:09:14.281Z,99.90
2019-04-16T04:11:42.821Z,99.90
2019-04-16T04:14:11.244Z,99.90
2019-04-16T04:16:39.876Z,99.90
2019-04-16T04:19:08.357Z,99.90
2019-04-16T04:21:36.814Z,99.90
2019-04-16T04:24:05.268Z,99.90
2019-04-16T04:26:33.966Z,99.90
2019-04-16T04:29:02.489Z,99.90
2019-04-16T04:31:32.304Z,99.90
2019-04-16T04:34:01.617Z,99.90
2019-04-16T04:36:31.226Z,99.90
2019-04-16T04:38:59.732Z,99.90
2019-04-16T04:41:28.219Z,99.90
2019-04-16T04:43:56.784Z,99.90
2019-04-16T04:46:25.302Z,99.90
2019-04-16T04:48:55.727Z,99.90
2019-04-16T04:51:24.396Z,99.90
2019-04-16T04:53:52.971Z,99.90
2019-04-16T04:56:21.602Z,99.90
2019-04-16T04:58:50.307Z,99.90
2019-04-16T05:01:19.018Z,99.90
2019-04-16T05:03:58.299Z,99.90
2019-04-16T05:06:29.891Z,99.90
2019-04-16T05:09:00.399Z,99.90
2019-04-16T05:11:28.956Z,99.90
2019-04-16T05:13:57.625Z,99.90
2019-04-16T05:16:26.162Z,99.90
2019-04-16T05:18:54.610Z,99.90
2019-04-16T05:21:23.009Z,99.90
2019-04-16T05:23:51.451Z,99.90
2019-04-16T05:26:19.840Z,98.70
2019-04-16T05:28:48.321Z,99.00
2019-04-16T05:31:16.804Z,98.20
2019-04-16T05:33:45.316Z,96.50
2019-04-16T05:36:15.212Z,94.10
2019-04-16T05:38:43.805Z,94.00
2019-04-16T05:41:13.484Z,96.10
2019-04-16T05:43:42.946Z,96.50
2019-04-16T05:46:11.544Z,95.40
2019-04-16T05:48:39.974Z,92.30
2019-04-16T05:51:08.448Z,92.90
2019-04-16T05:53:40.164Z,94.50
2019-04-16T05:56:16.314Z,91.30
2019-04-16T05:58:44.703Z,88.20
2019-04-16T06:01:38.670Z,87.60
2019-04-16T06:04:07.138Z,85.40
2019-04-16T06:06:35.523Z,88.10
2019-04-16T06:09:11.821Z,85.80
2019-04-16T06:11:38.391Z,83.40
2019-04-16T06:14:33.147Z,84.00
2019-04-16T06:17:25.199Z,82.90
2019-04-16T06:20:19.010Z,79.80
2019-04-16T06:23:07.759Z,81.60
2019-04-16T06:25:46.533Z,77.60
2019-04-16T06:28:49.331Z,76.70
2019-04-16T06:31:36.217Z,74.30
2019-04-16T06:34:36.934Z,73.50
2019-04-16T06:37:26.589Z,73.30
2019-04-16T06:40:10.551Z,70.50
2019-04-16T06:42:58.601Z,73.40
2019-04-16T06:45:36.586Z,73.90
2019-04-16T06:48:05.054Z,70.80
2019-04-16T06:50:55.729Z,72.80
2019-04-16T06:53:38.706Z,73.10
2019-04-16T06:56:25.364Z,71.00
2019-04-16T06:59:04.843Z,71.00
2019-04-16T07:02:10.599Z,70.50
2019-04-16T07:04:58.271Z,66.50
2019-04-16T07:07:40.419Z,62.70
2019-04-16T07:10:13.843Z,59.60
2019-04-16T07:12:42.317Z,53.50
2019-04-16T07:15:11.289Z,56.40
2019-04-16T07:17:40.728Z,55.80
2019-04-16T07:20:13.136Z,55.90
2019-04-16T07:22:39.782Z,52.30
2019-04-16T07:25:08.530Z,51.90
2019-04-16T07:27:59.314Z,50.90
2019-04-16T07:30:46.163Z,50.00
2019-04-16T07:33:37.088Z,52.10
2019-04-16T07:36:26.731Z,47.20
2019-04-16T07:39:13.126Z,50.30
2019-04-16T07:42:09.410Z,49.50
2019-04-16T07:44:39.302Z,47.50
2019-04-16T07:47:25.269Z,46.30
2019-04-16T07:50:12.868Z,44.60
2019-04-16T07:53:14.265Z,43.50
2019-04-16T07:55:47.909Z,42.30
2019-04-16T07:58:16.224Z,38.80
2019-04-16T08:00:45.303Z,38.40
2019-04-16T08:03:13.736Z,37.30
2019-04-16T08:05:42.076Z,35.20
2019-04-16T08:08:10.472Z,34.70
2019-04-16T08:10:38.790Z,33.90
2019-04-16T08:13:14.288Z,34.00
2019-04-16T08:15:43.120Z,33.90
2019-04-16T08:18:11.544Z,34.60
2019-04-16T08:20:39.926Z,33.70
2019-04-16T08:23:26.469Z,32.80
2019-04-16T08:26:02.622Z,31.90
2019-04-16T08:28:26.189Z,31.90
2019-04-16T08:30:54.614Z,32.20
2019-04-16T08:33:28.338Z,32.80
2019-04-16T08:35:53.207Z,33.30
2019-04-16T08:38:21.659Z,32.40
2019-04-16T08:40:50.040Z,33.30
2019-04-16T08:43:18.321Z,33.30
2019-04-16T08:45:47.607Z,34.20
2019-04-16T08:48:18.629Z,33.70
2019-04-16T08:50:49.286Z,36.00
2019-04-16T08:53:17.603Z,36.70
2019-04-16T08:55:45.961Z,34.60
2019-04-16T08:58:14.300Z,34.80
2019-04-16T09:00:46.644Z,33.60
2019-04-16T09:03:15.504Z,35.70
2019-04-16T09:05:45.249Z,35.90
2019-04-16T09:08:36.153Z,38.70
2019-04-16T09:11:04.881Z,37.70
2019-04-16T09:13:40.896Z,36.80
2019-04-16T09:16:10.361Z,37.00
2019-04-16T09:19:00.487Z,38.10
2019-04-16T09:21:29.089Z,37.10
2019-04-16T09:24:15.949Z,38.60
2019-04-16T09:26:55.757Z,37.50
2019-04-16T09:29:43.186Z,34.90
2019-04-16T09:32:33.851Z,35.80
2019-04-16T09:35:31.101Z,36.00
2019-04-16T09:38:21.682Z,37.10
2019-04-16T09:41:15.715Z,36.60
2019-04-16T09:43:47.348Z,36.10
2019-04-16T09:46:21.121Z,36.10
2019-04-16T09:48:46.212Z,37.20
2019-04-16T09:51:18.697Z,35.20
2019-04-16T09:53:44.886Z,35.80
2019-04-16T09:56:28.913Z,33.30
2019-04-16T09:59:05.867Z,34.80
2019-04-16T10:01:43.651Z,33.00
2019-04-16T10:04:14.657Z,31.30
2019-04-16T10:06:43.450Z,31.10
2019-04-16T10:09:12.724Z,31.30
2019-04-16T10:11:42.320Z,30.50
2019-04-16T10:14:10.687Z,31.20
2019-04-16T10:16:39.116Z,29.60
2019-04-16T10:19:08.519Z,28.70
2019-04-16T10:21:37.576Z,28.30
2019-04-16T10:24:25.605Z,28.80
2019-04-16T10:26:57.005Z,29.10
2019-04-16T10:29:25.929Z,27.50
2019-04-16T10:31:55.179Z,27.60
2019-04-16T10:34:23.728Z,27.40
2019-04-16T10:36:52.198Z,27.60
2019-04-16T10:39:38.802Z,27.70
2019-04-16T10:42:26.923Z,26.10
2019-04-16T10:45:03.014Z,28.30
2019-04-16T10:47:50.501Z,28.40
2019-04-16T10:50:25.363Z,27.00
2019-04-16T10:53:09.759Z,24.00
2019-04-16T10:55:56.425Z,25.40
2019-04-16T10:58:44.404Z,23.70
2019-04-16T11:01:34.693Z,23.40
2019-04-16T11:04:24.096Z,23.20
2019-04-16T11:06:53.466Z,22.30
2019-04-16T11:09:22.102Z,25.90
2019-04-16T11:11:50.644Z,24.00
2019-04-16T11:14:18.996Z,23.70
2019-04-16T11:16:50.863Z,25.30
2019-04-16T11:19:19.348Z,25.20
2019-04-16T11:21:47.889Z,24.30
2019-04-16T11:24:20.297Z,24.40
2019-04-16T11:26:47.512Z,22.40
2019-04-16T11:29:15.930Z,25.20
2019-04-16T11:31:44.554Z,23.50
2019-04-16T11:34:13.069Z,25.00
2019-04-16T11:36:41.529Z,25.50
2019-04-16T11:39:11.267Z,25.10
2019-04-16T11:41:39.797Z,25.10
2019-04-16T11:44:15.978Z,24.90
2019-04-16T11:46:39.183Z,24.50
2019-04-16T11:49:07.914Z,26.10
2019-04-16T11:51:38.406Z,25.10
2019-04-16T11:54:07.575Z,25.70
2019-04-16T11:56:37.390Z,25.30
2019-04-16T11:59:06.663Z,24.20
2019-04-16T12:01:49.177Z,23.00
2019-04-16T12:04:49.537Z,24.10
2019-04-16T12:07:56.047Z,24.90
2019-04-16T12:10:38.489Z,22.40
2019-04-16T12:13:38.716Z,19.90
2019-04-16T12:16:25.421Z,20.30
2019-04-16T12:19:12.119Z,20.90
2019-04-16T12:22:18.344Z,21.20
2019-04-16T12:24:52.689Z,20.80
2019-04-16T12:27:44.383Z,16.80
2019-04-16T12:30:23.225Z,18.70
2019-04-16T12:32:57.075Z,19.20
2019-04-16T12:35:47.839Z,20.70
2019-04-16T12:38:23.968Z,19.60
2019-04-16T12:41:14.251Z,19.40
2019-04-16T12:44:05.252Z,20.90
2019-04-16T12:47:05.034Z,18.70
2019-04-16T12:49:47.983Z,18.50
2019-04-16T12:52:41.386Z,19.30
2019-04-16T12:55:23.719Z,21.30
2019-04-16T12:58:20.006Z,20.60
2019-04-16T13:01:09.342Z,19.40
2019-04-16T13:03:52.582Z,17.50
2019-04-16T13:06:41.882Z,17.30
2019-04-16T13:09:32.291Z,16.30
2019-04-16T13:12:37.098Z,16.70
2019-04-16T13:15:14.820Z,18.60
2019-04-16T13:18:02.849Z,18.40
2019-04-16T13:20:50.462Z,19.40
2019-04-16T13:23:44.599Z,19.30
2019-04-16T13:26:32.489Z,18.50
2019-04-16T13:29:03.835Z,19.70
2019-04-16T13:31:32.169Z,20.40
2019-04-16T13:34:00.738Z,20.80
2019-04-16T13:36:29.269Z,21.20
2019-04-16T13:39:15.211Z,22.70
2019-04-16T13:41:43.782Z,21.70
2019-04-16T13:44:16.806Z,22.10
2019-04-16T13:46:43.922Z,20.60
2019-04-16T13:49:17.491Z,21.10
2019-04-16T13:51:47.813Z,20.90
2019-04-16T13:54:34.000Z,22.00
2019-04-16T13:57:03.169Z,24.70
2019-04-16T14:00:03.175Z,25.70
2019-04-16T14:02:39.737Z,25.80
2019-04-16T14:05:11.006Z,25.30
2019-04-16T14:07:38.822Z,25.90
2019-04-16T14:10:07.424Z,26.20
2019-04-16T14:12:42.233Z,25.90
2019-04-16T14:15:07.946Z,27.60
2019-04-16T14:17:51.372Z,30.00
2019-04-16T14:20:08.589Z,31.50
2019-04-16T14:22:38.193Z,34.40
2019-04-16T14:25:07.742Z,35.20
2019-04-16T14:27:37.192Z,36.70
2019-04-16T14:30:13.321Z,38.60
2019-04-16T14:32:41.822Z,38.40
2019-04-16T14:35:13.810Z,39.30
2019-04-16T14:37:44.342Z,38.90
2019-04-16T14:40:21.399Z,39.00
2019-04-16T14:42:57.505Z,39.70
2019-04-16T14:45:53.603Z,40.50
2019-04-16T14:48:09.616Z,41.70
2019-04-16T14:50:37.868Z,42.50
2019-04-16T14:53:06.349Z,45.00
2019-04-16T14:56:00.773Z,46.40
2019-04-16T14:58:44.142Z,44.50
2019-04-16T15:01:41.995Z,46.80
2019-04-16T15:04:18.298Z,45.40
2019-04-16T15:06:56.054Z,47.10
2019-04-16T15:09:32.734Z,57.00
2019-04-16T15:12:39.087Z,60.00
2019-04-16T15:15:21.282Z,61.00
2019-04-16T15:18:12.087Z,60.60
2019-04-16T15:21:10.160Z,60.40
2019-04-16T15:23:46.438Z,58.70
2019-04-16T15:26:34.765Z,59.00
2019-04-16T15:29:07.557Z,59.60
2019-04-16T15:31:54.012Z,60.40
2019-04-16T15:34:26.366Z,62.50
2019-04-16T15:37:29.417Z,63.00
2019-04-16T15:40:07.020Z,64.10
2019-04-16T15:42:51.233Z,64.80
2019-04-16T15:45:29.054Z,66.70
2019-04-16T15:48:06.577Z,65.60
2019-04-16T15:50:57.269Z,66.60
2019-04-16T15:53:52.660Z,70.80
2019-04-16T15:56:44.401Z,77.00
2019-04-16T15:59:32.752Z,79.10
2019-04-16T16:02:26.977Z,82.60
2019-04-16T16:05:02.805Z,83.90
2019-04-16T16:07:35.947Z,87.60
2019-04-16T16:10:12.539Z,90.70
2019-04-16T16:12:41.224Z,90.50
2019-04-16T16:15:11.599Z,89.00
2019-04-16T16:17:40.017Z,89.10
2019-04-16T16:20:11.267Z,89.90
2019-04-16T16:22:39.798Z,90.50
2019-04-16T16:25:09.994Z,92.90
2019-04-16T16:27:41.700Z,94.40
2019-04-16T16:30:08.926Z,95.00
2019-04-16T16:32:37.478Z,95.10
2019-04-16T16:35:06.584Z,95.40
2019-04-16T16:37:36.790Z,94.20
2019-04-16T16:40:06.489Z,94.50
2019-04-16T16:42:36.849Z,94.70
2019-04-16T16:45:06.692Z,95.00
2019-04-16T16:47:39.883Z,95.60
2019-04-16T16:50:14.607Z,97.00
2019-04-16T16:53:02.801Z,97.70
2019-04-16T16:55:45.756Z,98.20
2019-04-16T16:58:46.037Z,97.10
2019-04-16T17:01:34.668Z,96.20
2019-04-16T17:04:23.037Z,95.60
2019-04-16T17:06:51.712Z,94.50
2019-04-16T17:09:27.188Z,93.60
2019-04-16T17:11:56.864Z,91.40
2019-04-16T17:14:25.659Z,90.30
2019-04-16T17:16:54.188Z,92.70
2019-04-16T17:19:22.895Z,95.00
2019-04-16T17:21:51.526Z,95.80
2019-04-16T17:24:20.066Z,96.80
2019-04-16T17:26:50.075Z,96.90
2019-04-16T17:29:19.122Z,96.30
2019-04-16T17:31:50.815Z,94.40
2019-04-16T17:34:19.832Z,93.90
2019-04-16T17:36:48.970Z,92.20
2019-04-16T17:39:42.330Z,90.20
2019-04-16T17:42:08.966Z,92.50
2019-04-16T17:44:44.997Z,94.50
2019-04-16T17:47:35.977Z,93.10
2019-04-16T17:50:13.842Z,90.80
2019-04-16T17:53:00.417Z,91.80
2019-04-16T17:55:54.289Z,94.00
2019-04-16T17:58:36.373Z,90.30
2019-04-16T18:01:40.339Z,89.60
2019-04-16T18:04:35.032Z,89.20
2019-04-16T18:07:22.942Z,92.90
2019-04-16T18:10:15.986Z,94.00
2019-04-16T18:12:56.799Z,94.30
2019-04-16T18:15:34.953Z,95.30
2019-04-16T18:18:19.317Z,95.80
2019-04-16T18:21:06.024Z,96.20
2019-04-16T18:23:53.505Z,96.60
2019-04-16T18:26:45.922Z,97.20
2019-04-16T18:29:46.365Z,96.60
2019-04-16T18:32:23.990Z,96.60
2019-04-16T18:35:07.069Z,96.70
2019-04-16T18:37:53.162Z,96.60
2019-04-16T18:40:43.694Z,96.60
2019-04-16T18:43:50.194Z,97.60
2019-04-16T18:46:56.997Z,97.80
2019-04-16T18:49:27.087Z,97.90
2019-04-16T18:51:55.640Z,98.30
2019-04-16T18:54:26.577Z,98.90
2019-04-16T18:56:55.134Z,99.90
2019-04-16T19:02:31.229Z,99.90
2019-04-16T19:05:03.092Z,99.90
2019-04-16T19:07:34.708Z,99.90
2019-04-16T19:10:03.787Z,99.90
2019-04-16T19:12:32.495Z,99.90
2019-04-16T19:15:01.318Z,99.90
2019-04-16T19:17:48.305Z,99.90
2019-04-16T19:20:19.270Z,99.90
2019-04-16T19:22:49.805Z,99.90
2019-04-16T19:25:19.943Z,99.90
2019-04-16T19:28:06.976Z,99.90
2019-04-16T19:30:36.750Z,99.90
2019-04-16T19:33:06.537Z,99.90
2019-04-16T19:35:35.077Z,99.90
2019-04-16T19:38:06.432Z,99.90
2019-04-16T19:40:34.662Z,99.90
2019-04-16T19:43:03.657Z,99.90
2019-04-16T19:45:33.836Z,99.90
2019-04-16T19:48:06.660Z,99.90
2019-04-16T19:50:37.305Z,99.90
2019-04-16T19:53:06.308Z,99.90
2019-04-16T19:55:36.517Z,99.90
2019-04-16T19:58:09.902Z,99.90
2019-04-16T20:00:38.762Z,99.90
2019-04-16T20:03:08.051Z,99.90
2019-04-16T20:05:39.510Z,99.90
2019-04-16T20:08:08.222Z,99.90
2019-04-16T20:10:53.184Z,99.90
2019-04-16T20:13:24.726Z,99.90
2019-04-16T20:15:53.985Z,99.90
2019-04-16T20:18:30.699Z,99.90
2019-04-16T20:21:01.200Z,99.90
2019-04-16T20:23:30.569Z,99.90
2019-04-16T20:26:01.545Z,99.90
2019-04-16T20:28:31.974Z,99.90
2019-04-16T20:31:04.111Z,99.90
2019-04-16T20:33:33.180Z,99.90
2019-04-16T20:36:05.695Z,99.90
2019-04-16T20:38:34.767Z,99.90
2019-04-16T20:41:11.892Z,99.90
2019-04-16T20:43:41.906Z,99.90
2019-04-16T20:46:10.714Z,99.90
2019-04-16T20:48:44.936Z,99.90
2019-04-16T20:51:12.764Z,99.90
2019-04-16T20:53:41.654Z,99.90
2019-04-16T20:56:49.894Z,99.90
2019-04-16T20:59:17.417Z,99.90
2019-04-16T21:01:48.127Z,99.90
2019-04-16T21:04:16.642Z,99.90
2019-04-16T21:06:45.371Z,99.90
2019-04-16T21:09:13.947Z,99.90
2019-04-16T21:11:42.471Z,99.90
2019-04-16T21:14:11.157Z,99.90
2019-04-16T21:16:41.613Z,99.90
2019-04-16T21:19:22.141Z,99.90
2019-04-16T21:21:40.529Z,99.90
2019-04-16T21:24:09.272Z,99.90
2019-04-16T21:26:39.590Z,99.90
2019-04-16T21:29:21.304Z,99.90
2019-04-16T21:31:54.822Z,99.90
2019-04-16T21:34:32.807Z,99.90
2019-04-16T21:37:26.907Z,99.90
2019-04-16T21:39:58.154Z,99.90
2019-04-16T21:42:26.676Z,99.90
2019-04-16T21:44:58.629Z,99.90
2019-04-16T21:47:27.382Z,99.90
2019-04-16T21:49:56.626Z,99.90
2019-04-16T21:52:26.189Z,99.90
2019-04-16T21:54:54.732Z,99.90
2019-04-16T21:57:24.591Z,99.90
2019-04-16T21:59:56.681Z,99.90
2019-04-16T22:02:28.882Z,99.90
2019-04-16T22:04:57.462Z,99.90
2019-04-16T22:07:26.132Z,99.90
2019-04-16T22:09:54.789Z,99.90
2019-04-16T22:12:23.379Z,99.90
2019-04-16T22:14:54.394Z,99.90
2019-04-16T22:17:23.174Z,99.90
2019-04-16T22:19:54.193Z,99.90
2019-04-16T22:22:27.830Z,99.90
2019-04-16T22:24:57.275Z,99.90
2019-04-16T22:27:26.894Z,99.90
2019-04-16T22:29:58.910Z,99.90
2019-04-16T22:32:30.846Z,99.90
2019-04-16T22:34:58.169Z,99.90
2019-04-16T22:37:27.635Z,99.90
2019-04-16T22:40:30.634Z,99.90
2019-04-16T22:43:12.634Z,99.90
2019-04-16T22:46:13.869Z,99.90
2019-04-16T22:48:54.139Z,99.90
2019-04-16T22:51:25.985Z,99.90
2019-04-16T22:53:54.514Z,99.90
2019-04-16T22:56:43.277Z,99.90
2019-04-16T22:59:11.671Z,99.90
2019-04-16T23:01:44.891Z,99.90
2019-04-16T23:04:12.711Z,99.90
2019-04-16T23:06:41.148Z,99.90
2019-04-16T23:09:16.727Z,99.90
2019-04-16T23:11:40.679Z,99.90
2019-04-16T23:14:09.346Z,99.90
2019-04-16T23:16:41.927Z,99.90
2019-04-16T23:19:08.461Z,99.90
2019-04-16T23:21:42.312Z,99.90
2019-04-16T23:24:07.542Z,99.90
2019-04-16T23:26:36.105Z,99.90
2019-04-16T23:29:04.613Z,99.90
2019-04-16T23:31:33.594Z,99.90
2019-04-16T23:34:06.019Z,99.90
2019-04-16T23:36:32.348Z,99.90
2019-04-16T23:39:04.653Z,99.90
2019-04-16T23:41:32.315Z,99.90
2019-04-16T23:44:18.864Z,99.90
2019-04-16T23:47:18.774Z,99.90
2019-04-16T23:50:09.799Z,99.90
2019-04-16T23:52:43.572Z,99.90
2019-04-16T23:55:45.744Z,99.90
2019-04-16T23:58:34.919Z,99.90
